sensor_id;sensor_type;location;lat;lon;timestamp;P1;durP1;ratioP1;P2;durP2;ratioP2
20101;SDS011;10210;52.284;9.892;2023-04-25T00:01:24;15.30;;;5.33;;
20101;SDS011;10210;52.284;9.892;2023-04-25T00:03:50;15.63;;;5.30;;
20101;SDS011;10210;52.284;9.892;2023-04-25T00:06:15;14.40;;;5.37;;
20101;SDS011;10210;52.284;9.892;2023-04-25T00:08:42;13.23;;;4.57;;
20101;SDS011;10210;52.284;9.892;2023-04-25T00:11:08;16.73;;;5.30;;
20101;SDS011;10210;52.284;9.892;2023-04-25T00:13:34;15.30;;;5.63;;
20101;SDS011;10210;52.284;9.892;2023-04-25T00:16:00;13.67;;;4.80;;
20101;SDS011;10210;52.284;9.892;2023-04-25T00:18:27;14.27;;;5.10;;
20101;SDS011;10210;52.284;9.892;2023-04-25T00:20:58;14.90;;;4.93;;
20101;SDS011;10210;52.284;9.892;2023-04-25T00:23:23;13.47;;;4.60;;
20101;SDS011;10210;52.284;9.892;2023-04-25T00:25:49;15.70;;;4.70;;
20101;SDS011;10210;52.284;9.892;2023-04-25T00:28:15;16.13;;;5.00;;
20101;SDS011;10210;52.284;9.892;2023-04-25T00:30:42;14.13;;;4.70;;
20101;SDS011;10210;52.284;9.892;2023-04-25T00:33:08;14.73;;;4.70;;
20101;SDS011;10210;52.284;9.892;2023-04-25T00:35:35;16.13;;;5.03;;
20101;SDS011;10210;52.284;9.892;2023-04-25T00:38:00;15.30;;;5.53;;
20101;SDS011;10210;52.284;9.892;2023-04-25T00:40:27;15.07;;;4.87;;
20101;SDS011;10210;52.284;9.892;2023-04-25T00:42:53;16.40;;;4.40;;
20101;SDS011;10210;52.284;9.892;2023-04-25T00:45:19;15.43;;;5.20;;
20101;SDS011;10210;52.284;9.892;2023-04-25T00:47:45;16.80;;;4.90;;
20101;SDS011;10210;52.284;9.892;2023-04-25T00:50:12;17.30;;;5.20;;
20101;SDS011;10210;52.284;9.892;2023-04-25T00:52:40;15.83;;;5.13;;
20101;SDS011;10210;52.284;9.892;2023-04-25T00:55:10;16.67;;;5.50;;
20101;SDS011;10210;52.284;9.892;2023-04-25T00:57:37;17.23;;;5.37;;
20101;SDS011;10210;52.284;9.892;2023-04-25T01:00:04;15.07;;;5.60;;
20101;SDS011;10210;52.284;9.892;2023-04-25T01:02:34;15.87;;;4.93;;
20101;SDS011;10210;52.284;9.892;2023-04-25T01:05:00;15.53;;;5.27;;
20101;SDS011;10210;52.284;9.892;2023-04-25T01:07:28;16.87;;;5.40;;
20101;SDS011;10210;52.284;9.892;2023-04-25T01:09:54;17.80;;;5.67;;
20101;SDS011;10210;52.284;9.892;2023-04-25T01:12:19;18.80;;;5.97;;
20101;SDS011;10210;52.284;9.892;2023-04-25T01:14:45;15.13;;;5.20;;
20101;SDS011;10210;52.284;9.892;2023-04-25T01:17:11;15.40;;;5.53;;
20101;SDS011;10210;52.284;9.892;2023-04-25T01:19:37;14.50;;;5.43;;
20101;SDS011;10210;52.284;9.892;2023-04-25T01:22:03;17.37;;;5.80;;
20101;SDS011;10210;52.284;9.892;2023-04-25T01:24:31;17.13;;;5.50;;
20101;SDS011;10210;52.284;9.892;2023-04-25T01:26:58;14.87;;;5.77;;
20101;SDS011;10210;52.284;9.892;2023-04-25T01:29:25;18.30;;;6.60;;
20101;SDS011;10210;52.284;9.892;2023-04-25T01:31:52;16.73;;;6.53;;
20101;SDS011;10210;52.284;9.892;2023-04-25T01:34:19;16.27;;;6.40;;
20101;SDS011;10210;52.284;9.892;2023-04-25T01:36:45;18.70;;;6.40;;
20101;SDS011;10210;52.284;9.892;2023-04-25T01:39:15;17.33;;;6.30;;
20101;SDS011;10210;52.284;9.892;2023-04-25T01:41:42;18.17;;;6.50;;
20101;SDS011;10210;52.284;9.892;2023-04-25T01:44:09;15.73;;;6.70;;
20101;SDS011;10210;52.284;9.892;2023-04-25T01:46:35;17.17;;;6.63;;
20101;SDS011;10210;52.284;9.892;2023-04-25T01:49:01;18.20;;;6.53;;
20101;SDS011;10210;52.284;9.892;2023-04-25T01:51:27;16.33;;;6.20;;
20101;SDS011;10210;52.284;9.892;2023-04-25T01:53:53;16.07;;;6.67;;
20101;SDS011;10210;52.284;9.892;2023-04-25T01:56:20;17.93;;;6.70;;
20101;SDS011;10210;52.284;9.892;2023-04-25T01:58:45;19.40;;;7.40;;
20101;SDS011;10210;52.284;9.892;2023-04-25T02:01:11;15.77;;;6.20;;
20101;SDS011;10210;52.284;9.892;2023-04-25T02:03:37;19.53;;;7.90;;
20101;SDS011;10210;52.284;9.892;2023-04-25T02:06:03;18.03;;;6.60;;
20101;SDS011;10210;52.284;9.892;2023-04-25T02:08:29;19.40;;;6.80;;
20101;SDS011;10210;52.284;9.892;2023-04-25T02:10:55;18.83;;;7.17;;
20101;SDS011;10210;52.284;9.892;2023-04-25T02:13:20;19.83;;;7.63;;
20101;SDS011;10210;52.284;9.892;2023-04-25T02:15:46;15.63;;;6.37;;
20101;SDS011;10210;52.284;9.892;2023-04-25T02:18:12;19.60;;;7.00;;
20101;SDS011;10210;52.284;9.892;2023-04-25T02:20:38;19.50;;;7.23;;
20101;SDS011;10210;52.284;9.892;2023-04-25T02:23:03;23.83;;;8.87;;
20101;SDS011;10210;52.284;9.892;2023-04-25T02:25:29;18.27;;;6.83;;
20101;SDS011;10210;52.284;9.892;2023-04-25T02:27:55;18.17;;;7.03;;
20101;SDS011;10210;52.284;9.892;2023-04-25T02:30:20;19.40;;;7.50;;
20101;SDS011;10210;52.284;9.892;2023-04-25T02:32:46;19.47;;;7.63;;
20101;SDS011;10210;52.284;9.892;2023-04-25T02:35:12;19.63;;;7.20;;
20101;SDS011;10210;52.284;9.892;2023-04-25T02:37:38;19.57;;;6.80;;
20101;SDS011;10210;52.284;9.892;2023-04-25T02:40:05;18.70;;;6.83;;
20101;SDS011;10210;52.284;9.892;2023-04-25T02:42:32;16.17;;;5.47;;
20101;SDS011;10210;52.284;9.892;2023-04-25T02:44:58;16.10;;;5.97;;
20101;SDS011;10210;52.284;9.892;2023-04-25T02:47:23;14.03;;;5.57;;
20101;SDS011;10210;52.284;9.892;2023-04-25T02:49:49;16.27;;;5.90;;
20101;SDS011;10210;52.284;9.892;2023-04-25T02:52:15;13.57;;;5.13;;
20101;SDS011;10210;52.284;9.892;2023-04-25T02:54:40;14.73;;;5.10;;
20101;SDS011;10210;52.284;9.892;2023-04-25T02:57:06;22.10;;;5.10;;
20101;SDS011;10210;52.284;9.892;2023-04-25T02:59:32;17.07;;;5.00;;
20101;SDS011;10210;52.284;9.892;2023-04-25T03:01:58;15.80;;;4.33;;
20101;SDS011;10210;52.284;9.892;2023-04-25T03:04:24;16.90;;;4.20;;
20101;SDS011;10210;52.284;9.892;2023-04-25T03:06:50;19.30;;;4.60;;
20101;SDS011;10210;52.284;9.892;2023-04-25T03:09:16;18.83;;;4.50;;
20101;SDS011;10210;52.284;9.892;2023-04-25T03:11:43;16.43;;;4.03;;
20101;SDS011;10210;52.284;9.892;2023-04-25T03:14:10;18.40;;;4.37;;
20101;SDS011;10210;52.284;9.892;2023-04-25T03:16:36;18.23;;;4.30;;
20101;SDS011;10210;52.284;9.892;2023-04-25T03:19:02;22.63;;;4.63;;
20101;SDS011;10210;52.284;9.892;2023-04-25T03:21:28;16.83;;;4.33;;
20101;SDS011;10210;52.284;9.892;2023-04-25T03:23:56;21.53;;;4.63;;
20101;SDS011;10210;52.284;9.892;2023-04-25T03:26:23;18.03;;;4.20;;
20101;SDS011;10210;52.284;9.892;2023-04-25T03:28:49;15.43;;;4.10;;
20101;SDS011;10210;52.284;9.892;2023-04-25T03:31:15;21.77;;;4.70;;
20101;SDS011;10210;52.284;9.892;2023-04-25T03:33:40;19.37;;;4.97;;
20101;SDS011;10210;52.284;9.892;2023-04-25T03:36:06;17.40;;;4.10;;
20101;SDS011;10210;52.284;9.892;2023-04-25T03:38:32;15.83;;;4.77;;
20101;SDS011;10210;52.284;9.892;2023-04-25T03:40:58;19.77;;;4.33;;
20101;SDS011;10210;52.284;9.892;2023-04-25T03:43:24;19.50;;;4.90;;
20101;SDS011;10210;52.284;9.892;2023-04-25T03:45:49;20.30;;;4.87;;
20101;SDS011;10210;52.284;9.892;2023-04-25T03:48:16;18.70;;;4.63;;
20101;SDS011;10210;52.284;9.892;2023-04-25T03:50:41;17.13;;;4.43;;
20101;SDS011;10210;52.284;9.892;2023-04-25T03:53:07;17.70;;;4.20;;
20101;SDS011;10210;52.284;9.892;2023-04-25T03:55:32;21.63;;;5.00;;
20101;SDS011;10210;52.284;9.892;2023-04-25T03:57:58;23.93;;;4.77;;
20101;SDS011;10210;52.284;9.892;2023-04-25T04:00:24;19.27;;;4.70;;
20101;SDS011;10210;52.284;9.892;2023-04-25T04:02:50;17.27;;;4.97;;
20101;SDS011;10210;52.284;9.892;2023-04-25T04:05:16;17.00;;;4.73;;
20101;SDS011;10210;52.284;9.892;2023-04-25T04:07:41;19.93;;;4.53;;
20101;SDS011;10210;52.284;9.892;2023-04-25T04:10:08;16.93;;;5.40;;
20101;SDS011;10210;52.284;9.892;2023-04-25T04:12:35;18.57;;;4.50;;
20101;SDS011;10210;52.284;9.892;2023-04-25T04:15:02;19.50;;;4.80;;
20101;SDS011;10210;52.284;9.892;2023-04-25T04:17:30;19.80;;;5.10;;
20101;SDS011;10210;52.284;9.892;2023-04-25T04:19:56;17.87;;;4.57;;
20101;SDS011;10210;52.284;9.892;2023-04-25T04:22:22;16.73;;;5.13;;
20101;SDS011;10210;52.284;9.892;2023-04-25T04:24:49;20.07;;;4.70;;
20101;SDS011;10210;52.284;9.892;2023-04-25T04:27:16;20.20;;;5.70;;
20101;SDS011;10210;52.284;9.892;2023-04-25T04:29:44;21.03;;;5.33;;
20101;SDS011;10210;52.284;9.892;2023-04-25T04:32:12;20.27;;;4.77;;
20101;SDS011;10210;52.284;9.892;2023-04-25T04:34:39;19.10;;;5.07;;
20101;SDS011;10210;52.284;9.892;2023-04-25T04:37:06;18.30;;;5.03;;
20101;SDS011;10210;52.284;9.892;2023-04-25T04:39:32;18.00;;;4.73;;
20101;SDS011;10210;52.284;9.892;2023-04-25T04:41:59;21.20;;;5.00;;
20101;SDS011;10210;52.284;9.892;2023-04-25T04:44:26;15.43;;;4.37;;
20101;SDS011;10210;52.284;9.892;2023-04-25T04:46:53;20.30;;;5.10;;
20101;SDS011;10210;52.284;9.892;2023-04-25T04:49:19;15.47;;;4.40;;
20101;SDS011;10210;52.284;9.892;2023-04-25T04:51:45;21.60;;;5.07;;
20101;SDS011;10210;52.284;9.892;2023-04-25T04:54:12;21.53;;;4.57;;
20101;SDS011;10210;52.284;9.892;2023-04-25T04:56:38;17.53;;;4.90;;
20101;SDS011;10210;52.284;9.892;2023-04-25T04:59:03;19.00;;;4.77;;
20101;SDS011;10210;52.284;9.892;2023-04-25T05:01:29;20.40;;;5.03;;
20101;SDS011;10210;52.284;9.892;2023-04-25T05:03:55;19.10;;;5.47;;
20101;SDS011;10210;52.284;9.892;2023-04-25T05:06:25;18.33;;;4.93;;
20101;SDS011;10210;52.284;9.892;2023-04-25T05:08:54;20.27;;;5.20;;
20101;SDS011;10210;52.284;9.892;2023-04-25T05:11:21;17.97;;;4.67;;
20101;SDS011;10210;52.284;9.892;2023-04-25T05:13:52;22.17;;;5.13;;
20101;SDS011;10210;52.284;9.892;2023-04-25T05:16:18;19.27;;;5.07;;
20101;SDS011;10210;52.284;9.892;2023-04-25T05:18:44;21.17;;;5.10;;
20101;SDS011;10210;52.284;9.892;2023-04-25T05:21:11;20.93;;;4.60;;
20101;SDS011;10210;52.284;9.892;2023-04-25T05:23:37;20.03;;;4.60;;
20101;SDS011;10210;52.284;9.892;2023-04-25T05:26:02;22.13;;;4.90;;
20101;SDS011;10210;52.284;9.892;2023-04-25T05:28:28;20.93;;;4.83;;
20101;SDS011;10210;52.284;9.892;2023-04-25T05:30:54;20.13;;;5.30;;
20101;SDS011;10210;52.284;9.892;2023-04-25T05:33:20;19.20;;;4.30;;
20101;SDS011;10210;52.284;9.892;2023-04-25T05:35:45;21.40;;;4.93;;
20101;SDS011;10210;52.284;9.892;2023-04-25T05:38:12;21.73;;;5.03;;
20101;SDS011;10210;52.284;9.892;2023-04-25T05:40:37;18.93;;;4.63;;
20101;SDS011;10210;52.284;9.892;2023-04-25T05:43:03;20.40;;;4.80;;
20101;SDS011;10210;52.284;9.892;2023-04-25T05:45:29;23.00;;;4.80;;
20101;SDS011;10210;52.284;9.892;2023-04-25T05:47:54;21.93;;;4.83;;
20101;SDS011;10210;52.284;9.892;2023-04-25T05:50:21;20.30;;;5.23;;
20101;SDS011;10210;52.284;9.892;2023-04-25T05:52:46;21.27;;;4.50;;
20101;SDS011;10210;52.284;9.892;2023-04-25T05:55:12;21.60;;;5.10;;
20101;SDS011;10210;52.284;9.892;2023-04-25T05:57:39;19.73;;;4.70;;
20101;SDS011;10210;52.284;9.892;2023-04-25T06:00:06;23.87;;;4.57;;
20101;SDS011;10210;52.284;9.892;2023-04-25T06:02:34;21.33;;;4.20;;
20101;SDS011;10210;52.284;9.892;2023-04-25T06:05:00;25.57;;;4.93;;
20101;SDS011;10210;52.284;9.892;2023-04-25T06:07:28;26.60;;;4.73;;
20101;SDS011;10210;52.284;9.892;2023-04-25T06:09:55;20.63;;;4.57;;
20101;SDS011;10210;52.284;9.892;2023-04-25T06:12:20;19.43;;;4.23;;
20101;SDS011;10210;52.284;9.892;2023-04-25T06:14:46;18.57;;;4.57;;
20101;SDS011;10210;52.284;9.892;2023-04-25T06:17:12;23.97;;;4.93;;
20101;SDS011;10210;52.284;9.892;2023-04-25T06:19:38;17.13;;;4.47;;
20101;SDS011;10210;52.284;9.892;2023-04-25T06:22:03;17.47;;;4.33;;
20101;SDS011;10210;52.284;9.892;2023-04-25T06:24:29;20.63;;;4.70;;
20101;SDS011;10210;52.284;9.892;2023-04-25T06:26:55;22.33;;;4.77;;
20101;SDS011;10210;52.284;9.892;2023-04-25T06:29:21;18.03;;;4.33;;
20101;SDS011;10210;52.284;9.892;2023-04-25T06:31:46;17.57;;;4.40;;
20101;SDS011;10210;52.284;9.892;2023-04-25T06:34:12;20.27;;;5.03;;
20101;SDS011;10210;52.284;9.892;2023-04-25T06:36:38;20.70;;;4.57;;
20101;SDS011;10210;52.284;9.892;2023-04-25T06:39:03;18.47;;;4.40;;
20101;SDS011;10210;52.284;9.892;2023-04-25T06:41:29;16.57;;;4.33;;
20101;SDS011;10210;52.284;9.892;2023-04-25T06:43:55;19.80;;;4.60;;
20101;SDS011;10210;52.284;9.892;2023-04-25T06:46:20;22.23;;;3.90;;
20101;SDS011;10210;52.284;9.892;2023-04-25T06:48:46;18.83;;;4.13;;
20101;SDS011;10210;52.284;9.892;2023-04-25T06:51:12;17.27;;;3.50;;
20101;SDS011;10210;52.284;9.892;2023-04-25T06:53:40;17.87;;;4.37;;
20101;SDS011;10210;52.284;9.892;2023-04-25T06:56:06;20.37;;;4.27;;
20101;SDS011;10210;52.284;9.892;2023-04-25T06:58:32;18.67;;;3.60;;
20101;SDS011;10210;52.284;9.892;2023-04-25T07:00:57;16.47;;;3.60;;
20101;SDS011;10210;52.284;9.892;2023-04-25T07:03:23;21.83;;;4.23;;
20101;SDS011;10210;52.284;9.892;2023-04-25T07:05:49;19.87;;;3.93;;
20101;SDS011;10210;52.284;9.892;2023-04-25T07:08:15;17.13;;;4.30;;
20101;SDS011;10210;52.284;9.892;2023-04-25T07:10:41;16.90;;;4.03;;
20101;SDS011;10210;52.284;9.892;2023-04-25T07:13:13;23.50;;;4.20;;
20101;SDS011;10210;52.284;9.892;2023-04-25T07:15:39;16.93;;;3.80;;
20101;SDS011;10210;52.284;9.892;2023-04-25T07:18:05;25.00;;;4.20;;
20101;SDS011;10210;52.284;9.892;2023-04-25T07:20:31;18.73;;;3.50;;
20101;SDS011;10210;52.284;9.892;2023-04-25T07:22:57;18.43;;;3.73;;
20101;SDS011;10210;52.284;9.892;2023-04-25T07:25:23;19.20;;;3.90;;
20101;SDS011;10210;52.284;9.892;2023-04-25T07:27:49;19.57;;;4.50;;
20101;SDS011;10210;52.284;9.892;2023-04-25T07:30:15;16.23;;;3.60;;
20101;SDS011;10210;52.284;9.892;2023-04-25T07:32:40;18.20;;;4.07;;
20101;SDS011;10210;52.284;9.892;2023-04-25T07:35:06;21.63;;;3.83;;
20101;SDS011;10210;52.284;9.892;2023-04-25T07:37:33;16.37;;;4.03;;
20101;SDS011;10210;52.284;9.892;2023-04-25T07:39:59;14.73;;;3.40;;
20101;SDS011;10210;52.284;9.892;2023-04-25T07:42:25;16.07;;;4.20;;
20101;SDS011;10210;52.284;9.892;2023-04-25T07:44:50;15.10;;;3.30;;
20101;SDS011;10210;52.284;9.892;2023-04-25T07:47:16;15.23;;;3.50;;
20101;SDS011;10210;52.284;9.892;2023-04-25T07:49:44;17.83;;;4.43;;
20101;SDS011;10210;52.284;9.892;2023-04-25T07:52:12;16.50;;;3.77;;
20101;SDS011;10210;52.284;9.892;2023-04-25T07:54:39;12.83;;;2.80;;
20101;SDS011;10210;52.284;9.892;2023-04-25T07:57:04;15.33;;;3.20;;
20101;SDS011;10210;52.284;9.892;2023-04-25T07:59:31;16.20;;;3.50;;
20101;SDS011;10210;52.284;9.892;2023-04-25T08:01:57;14.23;;;3.10;;
20101;SDS011;10210;52.284;9.892;2023-04-25T08:04:24;14.30;;;3.23;;
20101;SDS011;10210;52.284;9.892;2023-04-25T08:06:50;14.50;;;3.30;;
20101;SDS011;10210;52.284;9.892;2023-04-25T08:09:17;14.03;;;3.30;;
20101;SDS011;10210;52.284;9.892;2023-04-25T08:11:43;14.53;;;3.13;;
20101;SDS011;10210;52.284;9.892;2023-04-25T08:14:08;15.03;;;3.20;;
20101;SDS011;10210;52.284;9.892;2023-04-25T08:16:34;15.53;;;2.83;;
20101;SDS011;10210;52.284;9.892;2023-04-25T08:19:00;13.27;;;2.90;;
20101;SDS011;10210;52.284;9.892;2023-04-25T08:21:26;14.47;;;3.20;;
20101;SDS011;10210;52.284;9.892;2023-04-25T08:23:54;13.03;;;3.43;;
20101;SDS011;10210;52.284;9.892;2023-04-25T08:26:20;16.23;;;2.90;;
20101;SDS011;10210;52.284;9.892;2023-04-25T08:28:46;15.23;;;3.47;;
20101;SDS011;10210;52.284;9.892;2023-04-25T08:31:11;15.97;;;3.70;;
20101;SDS011;10210;52.284;9.892;2023-04-25T08:33:37;12.97;;;2.97;;
20101;SDS011;10210;52.284;9.892;2023-04-25T08:36:06;13.47;;;3.13;;
20101;SDS011;10210;52.284;9.892;2023-04-25T08:38:31;14.90;;;3.20;;
20101;SDS011;10210;52.284;9.892;2023-04-25T08:40:57;14.30;;;3.00;;
20101;SDS011;10210;52.284;9.892;2023-04-25T08:43:26;13.57;;;3.03;;
20101;SDS011;10210;52.284;9.892;2023-04-25T08:45:54;16.83;;;3.20;;
20101;SDS011;10210;52.284;9.892;2023-04-25T08:48:27;13.23;;;3.17;;
20101;SDS011;10210;52.284;9.892;2023-04-25T08:50:55;11.27;;;2.80;;
20101;SDS011;10210;52.284;9.892;2023-04-25T08:53:27;13.30;;;2.90;;
20101;SDS011;10210;52.284;9.892;2023-04-25T08:55:57;14.90;;;2.80;;
20101;SDS011;10210;52.284;9.892;2023-04-25T08:58:26;10.70;;;2.67;;
20101;SDS011;10210;52.284;9.892;2023-04-25T09:00:53;13.57;;;2.70;;
20101;SDS011;10210;52.284;9.892;2023-04-25T09:03:19;11.67;;;2.80;;
20101;SDS011;10210;52.284;9.892;2023-04-25T09:05:45;11.33;;;2.30;;
20101;SDS011;10210;52.284;9.892;2023-04-25T09:08:11;11.00;;;2.77;;
20101;SDS011;10210;52.284;9.892;2023-04-25T09:10:37;10.47;;;2.30;;
20101;SDS011;10210;52.284;9.892;2023-04-25T09:15:48;11.03;;;2.57;;
20101;SDS011;10210;52.284;9.892;2023-04-25T09:20:50;13.87;;;2.83;;
20101;SDS011;10210;52.284;9.892;2023-04-25T09:23:18;9.83;;;2.40;;
20101;SDS011;10210;52.284;9.892;2023-04-25T09:25:46;15.90;;;2.70;;
20101;SDS011;10210;52.284;9.892;2023-04-25T09:28:14;12.77;;;2.90;;
20101;SDS011;10210;52.284;9.892;2023-04-25T09:30:39;12.23;;;2.43;;
20101;SDS011;10210;52.284;9.892;2023-04-25T09:33:13;13.67;;;3.00;;
20101;SDS011;10210;52.284;9.892;2023-04-25T09:35:40;13.50;;;3.00;;
20101;SDS011;10210;52.284;9.892;2023-04-25T09:38:10;17.17;;;2.73;;
20101;SDS011;10210;52.284;9.892;2023-04-25T09:40:39;12.53;;;2.70;;
20101;SDS011;10210;52.284;9.892;2023-04-25T09:43:24;11.47;;;2.60;;
20101;SDS011;10210;52.284;9.892;2023-04-25T09:45:53;8.73;;;2.50;;
20101;SDS011;10210;52.284;9.892;2023-04-25T09:48:24;12.40;;;2.53;;
20101;SDS011;10210;52.284;9.892;2023-04-25T09:53:40;11.43;;;2.10;;
20101;SDS011;10210;52.284;9.892;2023-04-25T09:56:09;11.33;;;2.57;;
20101;SDS011;10210;52.284;9.892;2023-04-25T09:58:37;8.23;;;2.00;;
20101;SDS011;10210;52.284;9.892;2023-04-25T10:01:05;11.57;;;2.60;;
20101;SDS011;10210;52.284;9.892;2023-04-25T10:03:35;13.53;;;2.50;;
20101;SDS011;10210;52.284;9.892;2023-04-25T10:06:07;13.90;;;2.13;;
20101;SDS011;10210;52.284;9.892;2023-04-25T10:08:44;12.17;;;2.50;;
20101;SDS011;10210;52.284;9.892;2023-04-25T10:11:13;8.43;;;1.90;;
20101;SDS011;10210;52.284;9.892;2023-04-25T10:13:41;6.47;;;2.00;;
20101;SDS011;10210;52.284;9.892;2023-04-25T10:16:08;5.90;;;1.90;;
20101;SDS011;10210;52.284;9.892;2023-04-25T10:18:34;12.37;;;2.50;;
20101;SDS011;10210;52.284;9.892;2023-04-25T10:21:00;8.97;;;1.90;;
20101;SDS011;10210;52.284;9.892;2023-04-25T10:23:29;9.43;;;2.23;;
20101;SDS011;10210;52.284;9.892;2023-04-25T10:25:56;7.80;;;2.00;;
20101;SDS011;10210;52.284;9.892;2023-04-25T10:28:23;7.53;;;2.00;;
20101;SDS011;10210;52.284;9.892;2023-04-25T10:30:59;8.00;;;1.83;;
20101;SDS011;10210;52.284;9.892;2023-04-25T10:33:36;9.93;;;2.10;;
20101;SDS011;10210;52.284;9.892;2023-04-25T10:36:26;9.50;;;2.00;;
20101;SDS011;10210;52.284;9.892;2023-04-25T10:38:58;9.93;;;2.40;;
20101;SDS011;10210;52.284;9.892;2023-04-25T10:41:45;10.00;;;2.40;;
20101;SDS011;10210;52.284;9.892;2023-04-25T10:44:22;10.87;;;2.40;;
20101;SDS011;10210;52.284;9.892;2023-04-25T10:46:48;11.20;;;2.47;;
20101;SDS011;10210;52.284;9.892;2023-04-25T10:52:16;10.20;;;2.17;;
20101;SDS011;10210;52.284;9.892;2023-04-25T10:54:54;9.30;;;2.20;;
20101;SDS011;10210;52.284;9.892;2023-04-25T10:57:41;9.80;;;2.20;;
20101;SDS011;10210;52.284;9.892;2023-04-25T11:00:12;8.63;;;2.27;;
20101;SDS011;10210;52.284;9.892;2023-04-25T11:02:57;9.53;;;2.17;;
20101;SDS011;10210;52.284;9.892;2023-04-25T11:07:57;14.03;;;2.27;;
20101;SDS011;10210;52.284;9.892;2023-04-25T11:10:28;11.70;;;2.40;;
20101;SDS011;10210;52.284;9.892;2023-04-25T11:12:56;11.30;;;2.47;;
20101;SDS011;10210;52.284;9.892;2023-04-25T11:15:23;10.63;;;2.50;;
20101;SDS011;10210;52.284;9.892;2023-04-25T11:17:53;13.00;;;2.83;;
20101;SDS011;10210;52.284;9.892;2023-04-25T11:20:20;10.40;;;2.33;;
20101;SDS011;10210;52.284;9.892;2023-04-25T11:22:47;9.63;;;2.30;;
20101;SDS011;10210;52.284;9.892;2023-04-25T11:25:13;13.13;;;2.43;;
20101;SDS011;10210;52.284;9.892;2023-04-25T11:27:54;11.37;;;2.53;;
20101;SDS011;10210;52.284;9.892;2023-04-25T11:30:25;11.60;;;2.30;;
20101;SDS011;10210;52.284;9.892;2023-04-25T11:32:52;12.97;;;2.90;;
20101;SDS011;10210;52.284;9.892;2023-04-25T11:35:18;11.47;;;2.70;;
20101;SDS011;10210;52.284;9.892;2023-04-25T11:37:45;11.80;;;2.67;;
20101;SDS011;10210;52.284;9.892;2023-04-25T11:40:11;11.77;;;2.60;;
20101;SDS011;10210;52.284;9.892;2023-04-25T11:42:37;13.70;;;3.00;;
20101;SDS011;10210;52.284;9.892;2023-04-25T11:45:08;11.00;;;2.67;;
20101;SDS011;10210;52.284;9.892;2023-04-25T11:47:34;12.57;;;2.90;;
20101;SDS011;10210;52.284;9.892;2023-04-25T11:50:01;10.63;;;2.50;;
20101;SDS011;10210;52.284;9.892;2023-04-25T11:52:38;9.97;;;2.70;;
20101;SDS011;10210;52.284;9.892;2023-04-25T11:55:12;8.40;;;1.97;;
20101;SDS011;10210;52.284;9.892;2023-04-25T11:57:44;9.80;;;2.37;;
20101;SDS011;10210;52.284;9.892;2023-04-25T12:00:15;7.67;;;2.20;;
20101;SDS011;10210;52.284;9.892;2023-04-25T12:02:52;10.10;;;2.27;;
20101;SDS011;10210;52.284;9.892;2023-04-25T12:05:19;10.13;;;2.43;;
20101;SDS011;10210;52.284;9.892;2023-04-25T12:07:49;9.03;;;2.23;;
20101;SDS011;10210;52.284;9.892;2023-04-25T12:10:18;10.87;;;2.40;;
20101;SDS011;10210;52.284;9.892;2023-04-25T12:12:45;11.43;;;2.70;;
20101;SDS011;10210;52.284;9.892;2023-04-25T12:17:47;14.47;;;3.20;;
20101;SDS011;10210;52.284;9.892;2023-04-25T12:20:16;11.73;;;2.30;;
20101;SDS011;10210;52.284;9.892;2023-04-25T12:22:49;11.33;;;2.30;;
20101;SDS011;10210;52.284;9.892;2023-04-25T12:28:17;14.27;;;3.27;;
20101;SDS011;10210;52.284;9.892;2023-04-25T12:30:58;8.90;;;2.37;;
20101;SDS011;10210;52.284;9.892;2023-04-25T12:33:30;10.53;;;2.10;;
20101;SDS011;10210;52.284;9.892;2023-04-25T12:35:58;9.30;;;2.20;;
20101;SDS011;10210;52.284;9.892;2023-04-25T12:38:29;10.63;;;2.40;;
20101;SDS011;10210;52.284;9.892;2023-04-25T12:40:59;17.13;;;2.37;;
20101;SDS011;10210;52.284;9.892;2023-04-25T12:43:25;7.10;;;1.90;;
20101;SDS011;10210;52.284;9.892;2023-04-25T12:45:51;5.60;;;1.67;;
20101;SDS011;10210;52.284;9.892;2023-04-25T12:48:19;11.33;;;1.90;;
20101;SDS011;10210;52.284;9.892;2023-04-25T12:50:49;6.83;;;1.63;;
20101;SDS011;10210;52.284;9.892;2023-04-25T12:53:20;7.17;;;1.80;;
20101;SDS011;10210;52.284;9.892;2023-04-25T12:55:48;8.20;;;1.50;;
20101;SDS011;10210;52.284;9.892;2023-04-25T12:58:23;6.00;;;1.87;;
20101;SDS011;10210;52.284;9.892;2023-04-25T13:00:50;8.07;;;1.70;;
20101;SDS011;10210;52.284;9.892;2023-04-25T13:03:15;6.80;;;1.60;;
20101;SDS011;10210;52.284;9.892;2023-04-25T13:05:42;7.17;;;1.70;;
20101;SDS011;10210;52.284;9.892;2023-04-25T13:08:08;8.00;;;1.70;;
20101;SDS011;10210;52.284;9.892;2023-04-25T13:10:39;7.23;;;1.60;;
20101;SDS011;10210;52.284;9.892;2023-04-25T13:13:05;3.83;;;1.50;;
20101;SDS011;10210;52.284;9.892;2023-04-25T13:15:31;3.63;;;1.20;;
20101;SDS011;10210;52.284;9.892;2023-04-25T13:17:57;5.37;;;1.30;;
20101;SDS011;10210;52.284;9.892;2023-04-25T13:20:23;5.00;;;1.40;;
20101;SDS011;10210;52.284;9.892;2023-04-25T13:22:48;5.00;;;1.30;;
20101;SDS011;10210;52.284;9.892;2023-04-25T13:25:23;5.07;;;1.47;;
20101;SDS011;10210;52.284;9.892;2023-04-25T13:27:52;6.60;;;1.53;;
20101;SDS011;10210;52.284;9.892;2023-04-25T13:30:23;6.23;;;1.50;;
20101;SDS011;10210;52.284;9.892;2023-04-25T13:32:49;5.40;;;1.47;;
20101;SDS011;10210;52.284;9.892;2023-04-25T13:35:37;6.33;;;1.70;;
20101;SDS011;10210;52.284;9.892;2023-04-25T13:38:20;8.67;;;1.70;;
20101;SDS011;10210;52.284;9.892;2023-04-25T13:40:48;6.43;;;1.40;;
20101;SDS011;10210;52.284;9.892;2023-04-25T13:43:20;7.30;;;1.63;;
20101;SDS011;10210;52.284;9.892;2023-04-25T13:45:49;7.03;;;1.80;;
20101;SDS011;10210;52.284;9.892;2023-04-25T13:48:15;8.03;;;1.80;;
20101;SDS011;10210;52.284;9.892;2023-04-25T13:50:41;8.47;;;2.17;;
20101;SDS011;10210;52.284;9.892;2023-04-25T13:53:07;5.17;;;1.70;;
20101;SDS011;10210;52.284;9.892;2023-04-25T13:55:35;7.23;;;1.80;;
20101;SDS011;10210;52.284;9.892;2023-04-25T13:58:10;9.03;;;2.10;;
20101;SDS011;10210;52.284;9.892;2023-04-25T14:00:39;7.30;;;1.70;;
20101;SDS011;10210;52.284;9.892;2023-04-25T14:03:08;6.93;;;1.87;;
20101;SDS011;10210;52.284;9.892;2023-04-25T14:05:34;8.50;;;1.87;;
20101;SDS011;10210;52.284;9.892;2023-04-25T14:08:13;5.70;;;1.70;;
20101;SDS011;10210;52.284;9.892;2023-04-25T14:10:39;6.40;;;1.90;;
20101;SDS011;10210;52.284;9.892;2023-04-25T14:13:05;7.33;;;1.80;;
20101;SDS011;10210;52.284;9.892;2023-04-25T14:15:32;6.87;;;2.10;;
20101;SDS011;10210;52.284;9.892;2023-04-25T14:17:59;6.90;;;1.90;;
20101;SDS011;10210;52.284;9.892;2023-04-25T14:20:25;9.57;;;2.03;;
20101;SDS011;10210;52.284;9.892;2023-04-25T14:22:57;8.83;;;2.07;;
20101;SDS011;10210;52.284;9.892;2023-04-25T14:25:26;4.50;;;1.60;;
20101;SDS011;10210;52.284;9.892;2023-04-25T14:27:52;6.37;;;1.67;;
20101;SDS011;10210;52.284;9.892;2023-04-25T14:30:18;6.67;;;1.90;;
20101;SDS011;10210;52.284;9.892;2023-04-25T14:32:48;6.10;;;1.70;;
20101;SDS011;10210;52.284;9.892;2023-04-25T14:35:20;5.47;;;1.53;;
20101;SDS011;10210;52.284;9.892;2023-04-25T14:37:46;7.10;;;1.77;;
20101;SDS011;10210;52.284;9.892;2023-04-25T14:40:11;6.90;;;2.10;;
20101;SDS011;10210;52.284;9.892;2023-04-25T14:42:40;7.80;;;2.27;;
20101;SDS011;10210;52.284;9.892;2023-04-25T14:45:15;10.20;;;2.30;;
20101;SDS011;10210;52.284;9.892;2023-04-25T14:47:43;6.83;;;2.10;;
20101;SDS011;10210;52.284;9.892;2023-04-25T14:50:12;6.87;;;2.10;;
20101;SDS011;10210;52.284;9.892;2023-04-25T14:52:38;7.10;;;2.00;;
20101;SDS011;10210;52.284;9.892;2023-04-25T14:55:03;8.07;;;2.17;;
20101;SDS011;10210;52.284;9.892;2023-04-25T14:57:37;8.97;;;2.03;;
20101;SDS011;10210;52.284;9.892;2023-04-25T15:00:06;9.23;;;1.87;;